sensor_id;sensor_type;location;lat;lon;timestamp;P1;durP1;ratioP1;P2;durP2;ratioP2
71821;SDS011;64096;52.548;13.406;2023-06-24T06:01:44;5.97;;;4.53;;
71821;SDS011;64096;52.548;13.406;2023-06-24T06:04:10;6.72;;;5.03;;
71821;SDS011;64096;52.548;13.406;2023-06-24T06:06:36;6.50;;;5.25;;
71821;SDS011;64096;52.548;13.406;2023-06-24T06:09:02;6.72;;;5.30;;
71821;SDS011;64096;52.548;13.406;2023-06-24T06:11:28;6.90;;;5.30;;
71821;SDS011;64096;52.548;13.406;2023-06-24T06:13:54;7.68;;;5.22;;
71821;SDS011;64096;52.548;13.406;2023-06-24T06:16:20;6.35;;;4.95;;
71821;SDS011;64096;52.548;13.406;2023-06-24T06:18:46;6.18;;;5.00;;
71821;SDS011;64096;52.548;13.406;2023-06-24T06:21:12;6.55;;;5.30;;
71821;SDS011;64096;52.548;13.406;2023-06-24T06:23:38;5.88;;;4.82;;
71821;SDS011;64096;52.548;13.406;2023-06-24T06:26:04;6.00;;;4.38;;
71821;SDS011;64096;52.548;13.406;2023-06-24T06:28:30;6.70;;;4.68;;
71821;SDS011;64096;52.548;13.406;2023-06-24T06:30:56;5.82;;;4.72;;
71821;SDS011;64096;52.548;13.406;2023-06-24T06:33:24;6.00;;;4.80;;
71821;SDS011;64096;52.548;13.406;2023-06-24T06:35:50;6.50;;;4.72;;
71821;SDS011;64096;52.548;13.406;2023-06-24T06:38:16;5.65;;;4.57;;
71821;SDS011;64096;52.548;13.406;2023-06-24T06:40:42;6.63;;;4.45;;
71821;SDS011;64096;52.548;13.406;2023-06-24T06:43:08;6.85;;;4.82;;
71821;SDS011;64096;52.548;13.406;2023-06-24T06:45:34;5.82;;;4.47;;
71821;SDS011;64096;52.548;13.406;2023-06-24T06:48:00;5.30;;;4.13;;
71821;SDS011;64096;52.548;13.406;2023-06-24T06:50:26;5.70;;;4.45;;
71821;SDS011;64096;52.548;13.406;2023-06-24T06:52:52;5.43;;;4.65;;
71821;SDS011;64096;52.548;13.406;2023-06-24T06:55:18;4.72;;;3.83;;
71821;SDS011;64096;52.548;13.406;2023-06-24T06:57:44;5.35;;;3.97;;
71821;SDS011;64096;52.548;13.406;2023-06-24T07:00:10;5.72;;;3.92;;
71821;SDS011;64096;52.548;13.406;2023-06-24T07:02:37;5.88;;;4.72;;
71821;SDS011;64096;52.548;13.406;2023-06-24T07:05:03;6.05;;;4.63;;
71821;SDS011;64096;52.548;13.406;2023-06-24T07:07:29;5.35;;;3.78;;
71821;SDS011;64096;52.548;13.406;2023-06-24T07:09:55;5.05;;;3.55;;
71821;SDS011;64096;52.548;13.406;2023-06-24T07:12:21;4.88;;;3.50;;
71821;SDS011;64096;52.548;13.406;2023-06-24T07:14:48;5.47;;;3.63;;
71821;SDS011;64096;52.548;13.406;2023-06-24T07:17:14;5.35;;;3.60;;
71821;SDS011;64096;52.548;13.406;2023-06-24T07:19:40;5.82;;;4.10;;
71821;SDS011;64096;52.548;13.406;2023-06-24T07:22:06;5.32;;;3.42;;
71821;SDS011;64096;52.548;13.406;2023-06-24T07:24:33;5.30;;;3.90;;
71821;SDS011;64096;52.548;13.406;2023-06-24T07:26:59;5.50;;;3.35;;
71821;SDS011;64096;52.548;13.406;2023-06-24T07:29:25;6.10;;;3.63;;
71821;SDS011;64096;52.548;13.406;2023-06-24T07:31:51;4.47;;;3.28;;
71821;SDS011;64096;52.548;13.406;2023-06-24T07:34:17;4.68;;;3.10;;
71821;SDS011;64096;52.548;13.406;2023-06-24T07:36:43;4.50;;;3.30;;
71821;SDS011;64096;52.548;13.406;2023-06-24T07:39:09;4.22;;;2.90;;
71821;SDS011;64096;52.548;13.406;2023-06-24T07:41:35;4.10;;;3.17;;
71821;SDS011;64096;52.548;13.406;2023-06-24T07:44:01;3.90;;;2.83;;
71821;SDS011;64096;52.548;13.406;2023-06-24T07:46:27;4.50;;;3.08;;
71821;SDS011;64096;52.548;13.406;2023-06-24T07:48:53;4.15;;;3.00;;
71821;SDS011;64096;52.548;13.406;2023-06-24T07:51:19;3.97;;;2.90;;
71821;SDS011;64096;52.548;13.406;2023-06-24T07:53:45;4.18;;;2.95;;
71821;SDS011;64096;52.548;13.406;2023-06-24T07:56:12;4.10;;;3.00;;
71821;SDS011;64096;52.548;13.406;2023-06-24T07:58:38;3.65;;;2.92;;
71821;SDS011;64096;52.548;13.406;2023-06-24T08:01:04;4.18;;;2.83;;
71821;SDS011;64096;52.548;13.406;2023-06-24T08:03:31;4.38;;;2.95;;
71821;SDS011;64096;52.548;13.406;2023-06-24T08:05:57;3.67;;;2.90;;
71821;SDS011;64096;52.548;13.406;2023-06-24T08:08:23;3.78;;;2.90;;
71821;SDS011;64096;52.548;13.406;2023-06-24T08:10:49;4.63;;;3.08;;
71821;SDS011;64096;52.548;13.406;2023-06-24T08:13:15;4.15;;;3.00;;
71821;SDS011;64096;52.548;13.406;2023-06-24T08:15:41;5.13;;;2.83;;
71821;SDS011;64096;52.548;13.406;2023-06-24T08:18:07;4.40;;;3.10;;
71821;SDS011;64096;52.548;13.406;2023-06-24T08:20:33;4.03;;;2.58;;
71821;SDS011;64096;52.548;13.406;2023-06-24T08:22:59;4.00;;;2.88;;
71821;SDS011;64096;52.548;13.406;2023-06-24T08:25:25;3.35;;;2.45;;
71821;SDS011;64096;52.548;13.406;2023-06-24T08:27:52;4.32;;;2.72;;
71821;SDS011;64096;52.548;13.406;2023-06-24T08:30:18;4.57;;;2.90;;
71821;SDS011;64096;52.548;13.406;2023-06-24T08:32:44;3.33;;;2.50;;
71821;SDS011;64096;52.548;13.406;2023-06-24T08:35:10;3.03;;;2.20;;
71821;SDS011;64096;52.548;13.406;2023-06-24T08:37:36;3.38;;;2.47;;
71821;SDS011;64096;52.548;13.406;2023-06-24T08:40:03;3.65;;;2.80;;
71821;SDS011;64096;52.548;13.406;2023-06-24T08:42:30;3.50;;;2.30;;
71821;SDS011;64096;52.548;13.406;2023-06-24T08:44:56;5.63;;;2.80;;
71821;SDS011;64096;52.548;13.406;2023-06-24T08:47:23;3.53;;;2.80;;
71821;SDS011;64096;52.548;13.406;2023-06-24T08:49:52;3.78;;;2.70;;
71821;SDS011;64096;52.548;13.406;2023-06-24T08:52:21;3.55;;;2.53;;
71821;SDS011;64096;52.548;13.406;2023-06-24T08:54:51;3.95;;;2.70;;
71821;SDS011;64096;52.548;13.406;2023-06-24T08:57:17;4.05;;;2.50;;
71821;SDS011;64096;52.548;13.406;2023-06-24T08:59:43;3.53;;;2.60;;
71821;SDS011;64096;52.548;13.406;2023-06-24T09:02:10;4.20;;;2.30;;
71821;SDS011;64096;52.548;13.406;2023-06-24T09:04:39;3.28;;;2.45;;
71821;SDS011;64096;52.548;13.406;2023-06-24T09:07:06;4.70;;;3.00;;
71821;SDS011;64096;52.548;13.406;2023-06-24T09:09:32;4.00;;;2.47;;
71821;SDS011;64096;52.548;13.406;2023-06-24T09:11:59;3.28;;;2.30;;
71821;SDS011;64096;52.548;13.406;2023-06-24T09:14:25;3.30;;;2.63;;
71821;SDS011;64096;52.548;13.406;2023-06-24T09:16:55;3.33;;;2.65;;
71821;SDS011;64096;52.548;13.406;2023-06-24T09:19:25;3.92;;;2.90;;
71821;SDS011;64096;52.548;13.406;2023-06-24T09:24:20;3.80;;;2.67;;
71821;SDS011;64096;52.548;13.406;2023-06-24T09:26:46;3.60;;;2.75;;
71821;SDS011;64096;52.548;13.406;2023-06-24T09:29:13;3.58;;;2.70;;
71821;SDS011;64096;52.548;13.406;2023-06-24T09:31:46;4.10;;;2.97;;
71821;SDS011;64096;52.548;13.406;2023-06-24T09:36:41;3.83;;;2.75;;
71821;SDS011;64096;52.548;13.406;2023-06-24T09:39:07;3.50;;;2.42;;
71821;SDS011;64096;52.548;13.406;2023-06-24T09:41:33;3.22;;;2.53;;
71821;SDS011;64096;52.548;13.406;2023-06-24T09:43:59;3.20;;;2.40;;
71821;SDS011;64096;52.548;13.406;2023-06-24T09:46:26;3.53;;;2.35;;
71821;SDS011;64096;52.548;13.406;2023-06-24T09:48:59;3.78;;;2.75;;
71821;SDS011;64096;52.548;13.406;2023-06-24T09:51:26;2.90;;;2.25;;
71821;SDS011;64096;52.548;13.406;2023-06-24T09:53:52;3.70;;;2.70;;
71821;SDS011;64096;52.548;13.406;2023-06-24T09:56:22;2.92;;;2.50;;
71821;SDS011;64096;52.548;13.406;2023-06-24T09:58:48;4.10;;;2.63;;
71821;SDS011;64096;52.548;13.406;2023-06-24T10:01:15;3.58;;;2.35;;
71821;SDS011;64096;52.548;13.406;2023-06-24T10:03:41;3.53;;;2.70;;
71821;SDS011;64096;52.548;13.406;2023-06-24T10:06:07;3.22;;;2.30;;
71821;SDS011;64096;52.548;13.406;2023-06-24T10:08:34;3.10;;;2.40;;
71821;SDS011;64096;52.548;13.406;2023-06-24T10:11:00;3.05;;;2.45;;
71821;SDS011;64096;52.548;13.406;2023-06-24T10:13:27;2.88;;;2.40;;
71821;SDS011;64096;52.548;13.406;2023-06-24T10:15:54;3.03;;;2.40;;
71821;SDS011;64096;52.548;13.406;2023-06-24T10:18:36;2.67;;;2.10;;
71821;SDS011;64096;52.548;13.406;2023-06-24T10:21:03;2.95;;;2.40;;
71821;SDS011;64096;52.548;13.406;2023-06-24T10:23:42;3.10;;;2.47;;
71821;SDS011;64096;52.548;13.406;2023-06-24T10:26:27;3.33;;;2.70;;
71821;SDS011;64096;52.548;13.406;2023-06-24T10:36:54;2.90;;;2.42;;
71821;SDS011;64096;52.548;13.406;2023-06-24T10:44:47;4.20;;;2.88;;
71821;SDS011;64096;52.548;13.406;2023-06-24T10:47:13;3.42;;;2.72;;
71821;SDS011;64096;52.548;13.406;2023-06-24T10:49:40;3.95;;;2.88;;
71821;SDS011;64096;52.548;13.406;2023-06-24T10:52:09;3.80;;;3.00;;
71821;SDS011;64096;52.548;13.406;2023-06-24T10:54:36;4.43;;;3.30;;
71821;SDS011;64096;52.548;13.406;2023-06-24T10:57:06;4.43;;;3.00;;
71821;SDS011;64096;52.548;13.406;2023-06-24T10:59:35;3.10;;;2.28;;
71821;SDS011;64096;52.548;13.406;2023-06-24T11:02:01;3.40;;;2.80;;
71821;SDS011;64096;52.548;13.406;2023-06-24T11:04:27;3.42;;;2.42;;
71821;SDS011;64096;52.548;13.406;2023-06-24T11:07:00;4.03;;;3.00;;
71821;SDS011;64096;52.548;13.406;2023-06-24T11:09:26;3.03;;;2.40;;
71821;SDS011;64096;52.548;13.406;2023-06-24T11:11:53;4.88;;;2.97;;
71821;SDS011;64096;52.548;13.406;2023-06-24T11:14:21;3.15;;;2.70;;
71821;SDS011;64096;52.548;13.406;2023-06-24T11:16:47;3.67;;;2.50;;
71821;SDS011;64096;52.548;13.406;2023-06-24T11:19:17;3.28;;;2.45;;
71821;SDS011;64096;52.548;13.406;2023-06-24T11:21:43;2.75;;;2.20;;
71821;SDS011;64096;52.548;13.406;2023-06-24T11:24:09;2.55;;;2.35;;
71821;SDS011;64096;52.548;13.406;2023-06-24T11:26:36;3.47;;;2.50;;
71821;SDS011;64096;52.548;13.406;2023-06-24T11:29:11;3.55;;;2.55;;
71821;SDS011;64096;52.548;13.406;2023-06-24T11:31:37;3.58;;;2.83;;
71821;SDS011;64096;52.548;13.406;2023-06-24T11:34:04;3.70;;;2.45;;
71821;SDS011;64096;52.548;13.406;2023-06-24T11:36:30;3.80;;;2.90;;
71821;SDS011;64096;52.548;13.406;2023-06-24T11:38:56;3.58;;;2.60;;
71821;SDS011;64096;52.548;13.406;2023-06-24T11:41:23;3.85;;;2.60;;
71821;SDS011;64096;52.548;13.406;2023-06-24T11:43:51;3.08;;;2.55;;
71821;SDS011;64096;52.548;13.406;2023-06-24T11:48:52;3.58;;;2.70;;
71821;SDS011;64096;52.548;13.406;2023-06-24T11:51:18;3.60;;;2.60;;
71821;SDS011;64096;52.548;13.406;2023-06-24T11:53:44;3.42;;;3.00;;
71821;SDS011;64096;52.548;13.406;2023-06-24T11:56:11;3.53;;;2.60;;
71821;SDS011;64096;52.548;13.406;2023-06-24T11:58:37;4.97;;;2.67;;
71821;SDS011;64096;52.548;13.406;2023-06-24T12:01:03;4.25;;;2.58;;
71821;SDS011;64096;52.548;13.406;2023-06-24T12:03:29;4.00;;;2.85;;
71821;SDS011;64096;52.548;13.406;2023-06-24T12:05:57;3.78;;;2.80;;
71821;SDS011;64096;52.548;13.406;2023-06-24T12:08:23;3.53;;;2.70;;
71821;SDS011;64096;52.548;13.406;2023-06-24T12:10:49;3.80;;;2.80;;
71821;SDS011;64096;52.548;13.406;2023-06-24T12:13:15;3.55;;;2.70;;
71821;SDS011;64096;52.548;13.406;2023-06-24T12:15:41;4.60;;;3.58;;
71821;SDS011;64096;52.548;13.406;2023-06-24T12:18:11;3.72;;;2.60;;
71821;SDS011;64096;52.548;13.406;2023-06-24T12:20:39;3.92;;;2.65;;
71821;SDS011;64096;52.548;13.406;2023-06-24T12:23:05;4.20;;;2.50;;
71821;SDS011;64096;52.548;13.406;2023-06-24T12:25:32;3.53;;;2.60;;
71821;SDS011;64096;52.548;13.406;2023-06-24T12:27:58;3.70;;;2.58;;
71821;SDS011;64096;52.548;13.406;2023-06-24T12:30:27;4.07;;;2.55;;
71821;SDS011;64096;52.548;13.406;2023-06-24T12:32:53;4.40;;;3.08;;
71821;SDS011;64096;52.548;13.406;2023-06-24T12:35:19;4.05;;;2.60;;
71821;SDS011;64096;52.548;13.406;2023-06-24T12:37:46;5.70;;;2.58;;
71821;SDS011;64096;52.548;13.406;2023-06-24T12:40:13;4.50;;;2.92;;
71821;SDS011;64096;52.548;13.406;2023-06-24T12:42:39;4.43;;;2.67;;
71821;SDS011;64096;52.548;13.406;2023-06-24T12:45:05;4.22;;;2.72;;
71821;SDS011;64096;52.548;13.406;2023-06-24T12:47:32;4.32;;;2.95;;
71821;SDS011;64096;52.548;13.406;2023-06-24T12:49:58;4.50;;;3.20;;
71821;SDS011;64096;52.548;13.406;2023-06-24T12:52:24;4.95;;;3.15;;
71821;SDS011;64096;52.548;13.406;2023-06-24T12:54:50;5.28;;;3.17;;
71821;SDS011;64096;52.548;13.406;2023-06-24T12:57:16;4.10;;;3.00;;
71821;SDS011;64096;52.548;13.406;2023-06-24T12:59:42;4.20;;;3.10;;
71821;SDS011;64096;52.548;13.406;2023-06-24T13:02:08;4.72;;;2.95;;
71821;SDS011;64096;52.548;13.406;2023-06-24T13:04:34;5.03;;;3.20;;
71821;SDS011;64096;52.548;13.406;2023-06-24T13:07:00;4.68;;;2.92;;
71821;SDS011;64096;52.548;13.406;2023-06-24T13:09:26;4.13;;;2.88;;
71821;SDS011;64096;52.548;13.406;2023-06-24T13:11:52;4.05;;;2.88;;
71821;SDS011;64096;52.548;13.406;2023-06-24T13:14:18;4.75;;;2.88;;
71821;SDS011;64096;52.548;13.406;2023-06-24T13:16:45;4.45;;;2.85;;
71821;SDS011;64096;52.548;13.406;2023-06-24T13:19:11;4.75;;;3.30;;
71821;SDS011;64096;52.548;13.406;2023-06-24T13:21:37;4.53;;;3.00;;
71821;SDS011;64096;52.548;13.406;2023-06-24T13:24:03;4.22;;;2.65;;
71821;SDS011;64096;52.548;13.406;2023-06-24T13:26:29;4.68;;;3.20;;
71821;SDS011;64096;52.548;13.406;2023-06-24T13:28:55;4.50;;;2.90;;
71821;SDS011;64096;52.548;13.406;2023-06-24T13:31:22;3.58;;;2.47;;
71821;SDS011;64096;52.548;13.406;2023-06-24T13:33:48;3.83;;;2.78;;
71821;SDS011;64096;52.548;13.406;2023-06-24T13:36:33;4.15;;;2.83;;
71821;SDS011;64096;52.548;13.406;2023-06-24T13:39:00;3.70;;;2.70;;
71821;SDS011;64096;52.548;13.406;2023-06-24T13:41:27;4.30;;;2.72;;
71821;SDS011;64096;52.548;13.406;2023-06-24T13:43:55;4.22;;;2.90;;
71821;SDS011;64096;52.548;13.406;2023-06-24T13:46:22;4.47;;;2.92;;
71821;SDS011;64096;52.548;13.406;2023-06-24T13:48:48;4.50;;;3.03;;
71821;SDS011;64096;52.548;13.406;2023-06-24T13:51:15;4.18;;;2.83;;
71821;SDS011;64096;52.548;13.406;2023-06-24T13:53:41;3.95;;;2.67;;
71821;SDS011;64096;52.548;13.406;2023-06-24T13:56:07;4.72;;;3.20;;
71821;SDS011;64096;52.548;13.406;2023-06-24T13:58:33;4.50;;;3.30;;
